Landels-Hill Big Creek Reserve Entrance, California Weather observations

Data are for 10 minute period ending at time listed.
 Day   Time   Solar   Ave.   Ave.  Ave.  Vector  Max.   Baro.   Total    
  of    of     Rad.   Air    Rel.  Wind   Wind   Wind  Press.  Precip.   
Year   Day            Temp.  Hum.  Speed  Dir.   Gust                    
2014   (PST)  Kw/m2    F      %     mph   deg.    mph    mb.     in.     
-------------------------------------------------------------------------
 329    1:30   0.00   51.7    58    4.1     9     8.3   1024.6    0.00 
 329    1:40   0.00   51.9    56    3.7    25     7.5   1024.5    0.00 
 329    1:50   0.00   52.2    54    3.6    42     9.6   1024.4    0.00 
 329    2:00   0.00   52.1    54    2.8    52     6.4   1024.6    0.00 
 329    2:10   0.00   51.8    56    2.5    27     6.1   1024.9    0.00 
 329    2:20   0.00   50.9    60    2.5    26     8.1   1024.9    0.00 
 329    2:30   0.00   51.0    58    3.3    52     7.4   1024.8    0.00 
 329    2:40   0.00   51.3    57    3.9    23     8.6   1024.7    0.00 
 329    2:50   0.00   51.1    57    4.0    23     9.8   1024.5    0.00 
 329    3:00   0.00   51.1    57    3.6    54     6.5   1024.5    0.00 
 329    3:10   0.00   51.5    55    3.4    43     6.3   1024.6    0.00 
 329    3:20   0.00   51.5    55    4.0    43     7.5   1024.4    0.00 
 329    3:30   0.00   50.9    58    4.0    22     9.2   1024.4    0.00 
 329    3:40   0.00   50.3    59    3.8    26     8.3   1024.3    0.00 
 329    3:50   0.00   50.3    60    4.3    19     9.3   1024.2    0.00 
 329    4:00   0.00   50.4    59    4.7    12    10.4   1024.0    0.00 
 329    4:10   0.00   51.1    56    4.9    32     9.7   1023.8    0.00 
 329    4:20   0.00   51.6    55    4.2    22     9.3   1023.9    0.00 
 329    4:30   0.00   51.3    56    4.0    34     7.9   1023.9    0.00 
 329    4:40   0.00   51.5    55    3.8    22     8.3   1024.1    0.00 
 329    4:50   0.00   52.0    53    3.4    55     7.6   1024.2    0.00 
 329    5:00   0.00   51.5    56    4.1    39     9.3   1024.3    0.00 
 329    5:10   0.00   51.3    56    3.7    49     7.3   1024.4    0.00 
 329    5:20   0.00   51.7    54    3.6    46     7.5   1024.5    0.00 
 329    5:30   0.00   51.5    56    4.3    55     8.8   1024.4    0.00 
 329    5:40   0.00   51.8    54    3.8    38     8.2   1024.5    0.00 
 329    5:50   0.00   52.1    53    2.4    47     5.9   1024.7    0.00 
 329    6:00   0.00   52.0    54    2.3    39     5.7   1024.8    0.00 
 329    6:10   0.00   51.6    55    2.1    40     5.6   1025.1    0.00 
 329    6:20   0.00   51.9    53    2.6    45     5.2   1025.2    0.00 
 329    6:30   0.00   52.3    52    2.8    41     6.4   1025.2    0.00 
 329    6:40   0.00   51.8    55    3.2    41     7.7   1025.2    0.00 
 329    6:50   0.00   51.7    55    3.0    57     7.7   1025.2    0.00 
 329    7:00   0.00   51.4    57    3.8    39     8.1   1025.2    0.00 
 329    7:10   0.01   51.4    57    4.6    24     9.0   1025.2    0.00 
 329    7:20   0.01   51.4    57    4.1    26     9.8   1025.2    0.00 
 329    7:30   0.01   51.7    56    3.9    60     6.9   1025.3    0.00 
 329    7:40   0.01   52.5    54    3.7    31     7.9   1025.3    0.00 
 329    7:50   0.01   52.0    56    3.4    32     6.1   1025.4    0.00 
 329    8:00   0.01   52.8    54    3.4    49     6.7   1025.5    0.00 
 329    8:10   0.01   53.0    55    3.6    36     7.5   1025.4    0.00 
 329    8:20   0.01   52.5    59    3.3    26     6.5   1025.2    0.00 
 329    8:30   0.02   53.5    56    2.9    47     6.9   1025.2    0.00 
 329    8:40   0.03   54.0    56    1.7    17     6.5   1025.4    0.00 
 329    8:50   0.03   52.2    65    3.2     6     5.5   1025.4    0.00 
 329    9:00   0.03   51.9    66    3.3   359     6.5   1025.5    0.00 
 329    9:10   0.03   52.7    65    2.2     3     5.1   1025.6    0.00 
 329    9:20   0.03   53.5    63    2.0     0     3.9   1025.7    0.00 
 329    9:30   0.03   53.8    64    1.2   359     2.8   1025.7    0.00 
 329    9:40   0.03   54.9    61    2.7   356     3.9   1025.7    0.00 
 329    9:50   0.03   56.3    56    1.4    11     2.6   1025.6    0.00 
 329   10:00   0.03   57.6    52    1.1    20     2.5   1025.7    0.00 
 329   10:10   0.03   58.8    49    0.9    46     2.4   1025.8    0.00 
 329   10:20   0.03   59.6    46    1.6    59     2.8   1025.8    0.00 
 329   10:30   0.03   61.1    41    1.5    77     3.1   1025.7    0.00 
 329   10:40   0.04   62.2    38    1.4   120     2.3   1025.7    0.00 
 329   10:50   0.41   62.9    40    0.6   100     2.0   1025.7    0.00 
 329   11:00   0.49   64.0    43    1.2   172     3.1   1025.6    0.00 
 329   11:10   0.50   64.5    52    2.1   267     5.0   1025.5    0.00 
 329   11:20   0.51   64.7    55    1.8   260     4.5   1025.7    0.00 
 329   11:30   0.53   65.0    47    1.5   259     3.9   1025.9    0.00 
 329   11:40   0.53   66.3    42    1.3   242     3.9   1025.7    0.00 
 329   11:50   0.54   66.9    43    1.0   207     3.1   1025.7    0.00 
 329   12:00   0.54   67.4    39    0.8   232     2.3   1025.5    0.00 
 329   12:10   0.54   68.3    36    1.0   205     3.0   1025.3    0.00 
 329   12:20   0.54   68.1    37    1.4   237     3.4   1025.2    0.00 
 329   12:30   0.54   67.6    38    1.2   220     3.0   1025.0    0.00 
 329   12:40   0.53   67.9    38    1.1   231     2.8   1024.8    0.00 
 329   12:50   0.53   67.0    37    1.4   229     3.9   1024.7    0.00 
 329   13:00   0.52   67.4    32    1.8   207     2.9   1024.5    0.00 
 329   13:10   0.51   67.5    35    1.3   207     3.0   1024.4    0.00 
 329   13:20   0.50   67.6    31    1.8   207     3.2   1024.2    0.00 
 329   13:30   0.49   67.4    30    1.9   207     2.8   1024.1    0.00 
 329   13:40   0.47   67.7    34    1.8   212     2.9   1023.9    0.00 
 329   13:50   0.46   68.2    34    0.8   218     2.1   1023.9    0.00 
 329   14:00   0.44   68.7    33    1.1   219     2.7   1023.8    0.00 
 329   14:10   0.42   69.2    33    1.0   217     3.1   1023.7    0.00 
 329   14:20   0.40   68.3    34    1.1   236     3.3   1023.6    0.00 
 329   14:30   0.38   67.2    35    1.8   244     3.4   1023.6    0.00 
 329   14:40   0.36   66.9    34    1.0   241     2.6   1023.6    0.00 
 329   14:50   0.33   67.9    34    0.8   236     2.1   1023.5    0.00 
 329   15:00   0.31   67.4    36    0.9   235     2.9   1023.5    0.00 
 329   15:10   0.28   67.4    38    0.5   211     1.9   1023.5    0.00 
 329   15:20   0.26   67.3    40    0.9   199     2.3   1023.6    0.00 
 329   15:30   0.23   63.8    54    1.2   330     4.1   1023.6    0.00 
 329   15:40   0.20   59.5    60    2.2     2     3.8   1023.5    0.00 
 329   15:50   0.18   59.8    56    0.5    53     2.1   1023.4    0.00 
 329   16:00   0.15   59.8    56    0.8   355     2.5   1023.5    0.00 
 329   16:10   0.12   59.6    55    1.6    15     3.5   1023.6    0.00 
 329   16:20   0.10   58.5    59    1.6    30     3.7   1023.4    0.00 
 329   16:30   0.04   57.8    60    1.3    24     2.9   1023.0    0.00 
 329   16:40   0.03   56.9    63    1.2    53     2.3   1022.6    0.00 
 329   16:50   0.01   56.6    64    1.0    45     2.3   1022.5    0.00 
 329   17:00   0.01   56.1    65    1.5    28     3.3   1022.6    0.00 
 329   17:10   0.00   56.2    64    1.3    28     3.4   1022.7    0.00 
 329   17:20   0.00   56.1    64    1.5    34     4.2   1022.8    0.00 
 329   17:30   0.00   56.6    61    2.2    35     5.6   1022.8    0.00 
 329   17:40   0.00   56.6    61    2.3    37     5.1   1022.9    0.00 
 329   17:50   0.00   56.4    61    2.6    36     7.5   1022.9    0.00 
 329   18:00   0.00   56.2    61    2.7    34     9.0   1023.0    0.00 
 329   18:10   0.00   56.2    61    2.5    24     5.8   1023.0    0.00 
 329   18:20   0.00   56.3    60    3.0    29     7.5   1023.1    0.00 
 329   18:30   0.00   56.0    61    2.9    29     6.5   1023.1    0.00 
 329   18:40   0.00   55.8    61    2.9    52     6.1   1023.1    0.00 
 329   18:50   0.00   55.6    61    3.2    36     6.9   1023.1    0.00 
 329   19:00   0.00   55.7    60    2.6    28     6.9   1023.2    0.00 
 329   19:10   0.00   55.7    60    2.9    32     7.7   1023.1    0.00 
 329   19:20   0.00   55.8    59    3.0    44     6.4   1023.1    0.00 
 329   19:30   0.00   55.5    59    3.0    32     7.2   1023.1    0.00 
 329   19:40   0.00   55.5    59    3.0    34     7.2   1023.1    0.00 
 329   19:50   0.00   55.3    59    3.2    25     7.2   1023.1    0.00 
 329   20:00   0.00   55.1    60    3.4    32     8.7   1023.0    0.00 
 329   20:10   0.00   55.2    58    3.0    39     7.1   1023.0    0.00 
 329   20:20   0.00   55.0    59    3.1    43     8.0   1023.0    0.00 
 329   20:30   0.00   54.9    59    2.9    32     7.2   1023.0    0.00 
 329   20:40   0.00   54.6    59    3.7    43     8.0   1022.9    0.00 
 329   20:50   0.00   54.5    60    5.0   355     9.4   1022.8    0.00 
 329   21:00   0.00   54.0    61    4.0    18     8.6   1022.7    0.00 
 329   21:10   0.00   54.8    58    3.1    44     6.7   1022.7    0.00 
 329   21:20   0.00   54.8    58    3.4    50     7.5   1022.8    0.00 
 329   21:30   0.00   55.2    56    3.5    44     7.2   1022.8    0.00 
 329   21:40   0.00   54.9    57    3.2    42     7.5   1022.8    0.00 
 329   21:50   0.00   54.8    57    3.2    37     6.9   1022.8    0.00 
 329   22:00   0.00   55.0    56    3.0    36     9.0   1022.8    0.00 
 329   22:10   0.00   55.3    55    3.1    56     7.2   1022.7    0.00 
 329   22:20   0.00   55.2    56    3.5    52     6.7   1022.6    0.00 
 329   22:30   0.00   55.1    56    3.3    43     6.9   1022.6    0.00 
 329   22:40   0.00   55.1    56    3.1    45     6.5   1022.5    0.00 
 329   22:50   0.00   55.1    56    3.5    42     9.1   1022.5    0.00 
 329   23:00   0.00   55.1    56    3.1    51     6.4   1022.5    0.00 
 329   23:10   0.00   55.0    57    3.7    53     7.4   1022.5    0.00 
 329   23:20   0.00   55.1    57    3.2    45     7.3   1022.5    0.00 
 329   23:30   0.00   55.0    57    3.4    49     8.4   1022.4    0.00 
 329   23:40   0.00   54.8    58    3.2    39     7.0   1022.4    0.00 
 329   23:50   0.00   54.7    58    3.6    49     8.8   1022.3    0.00 
 330    0:00   0.00   54.9    57    3.3    61     6.0   1022.1    0.00 
 330    0:10   0.00   54.9    57    3.1    48     7.4   1022.1    0.00 
 330    0:20   0.00   54.7    57    3.0    50     7.3   1021.9    0.00 
 330    0:30   0.00   54.9    56    3.1    43     6.6   1021.9    0.00 
 330    0:40   0.00   55.0    56    3.0    28     7.4   1022.0    0.00 
 330    0:50   0.00   55.1    55    2.8    35     7.7   1021.9    0.00 
 330    1:00   0.00   55.0    56    3.2    45     8.0   1021.8    0.00 
 330    1:10   0.00   54.8    57    3.4    52     6.4   1021.6    0.00 
 330    1:20   0.00   55.0    57    3.1    39     6.6   1021.5    0.00 

Return to Big Creek Reserve Entrance graphs page.


Western Regional Climate Center,wrcc@dri.edu